Terminal Aerodrome Forecast
Issued by NWS

Current Version | Previous Version | Graphics & Text | Print | Product List | Glossary On
Versions: 1 2 3 4 5 6 7 8 9 10 11 12 13 14 15 16 17 18 19 20 21 22 23 24 25 26 27
000
FTUS41 KILN 271500 AAA
TAFLUK
TAF AMD
KLUK 271520Z 2715/2812 22012G20KT P6SM SCT040
     FM271800 22012G20KT P6SM VCTS SCT045CB BKN100
      TEMPO 2719/2721 3SM TSRA BKN045CB
     FM272200 24010KT P6SM FEW040 BKN100
     FM280500 24004KT 5SM BR FEW050
     FM280900 00000KT 1/2SM FG FEW020=

USA.gov is the U.S. government's official web portal to all federal, state and local government web resources and services.